Terminal Aerodrome Forecast
Issued by NWS

Home | Current Version | Previous Version | Text Only | Print | Product List | Glossary Off
Versions: 1 2 3 4 5 6 7 8 9 10 11 12 13 14 15 16 17 18 19 20

438
FTUS43 KLOT 230521
TAFDPA
TAF
KDPA 230521Z 2306/2406 VRB03KT 6SM HZ SKC
      TEMPO 2309/2311 5SM HZ
     FM231500 20005KT P6SM SCT045
     FM232000 15005KT P6SM FEW050 SCT250=

USA.gov is the U.S. government's official web portal to all federal, state and local government web resources and services.